sensor_id;sensor_type;location;lat;lon;timestamp;temperature;humidity
55203;DHT22;41077;52.956;6.796;2023-03-04T00:01:45;6.30;99.90
55203;DHT22;41077;52.956;6.796;2023-03-04T00:04:11;6.20;99.90
55203;DHT22;41077;52.956;6.796;2023-03-04T00:06:38;6.30;99.90
55203;DHT22;41077;52.956;6.796;2023-03-04T00:09:04;6.20;99.90
55203;DHT22;41077;52.956;6.796;2023-03-04T00:11:33;6.20;99.90
55203;DHT22;41077;52.956;6.796;2023-03-04T00:13:58;6.20;99.90
55203;DHT22;41077;52.956;6.796;2023-03-04T00:16:24;6.20;99.90
55203;DHT22;41077;52.956;6.796;2023-03-04T00:18:56;6.30;99.90
55203;DHT22;41077;52.956;6.796;2023-03-04T00:21:22;6.20;99.90
55203;DHT22;41077;52.956;6.796;2023-03-04T00:23:48;6.20;99.90
55203;DHT22;41077;52.956;6.796;2023-03-04T00:26:15;6.20;99.90
55203;DHT22;41077;52.956;6.796;2023-03-04T00:28:41;6.20;99.90
55203;DHT22;41077;52.956;6.796;2023-03-04T00:31:07;6.20;99.90
55203;DHT22;41077;52.956;6.796;2023-03-04T00:33:33;6.20;99.90
55203;DHT22;41077;52.956;6.796;2023-03-04T00:36:00;6.20;99.90
55203;DHT22;41077;52.956;6.796;2023-03-04T00:38:26;6.20;99.90
55203;DHT22;41077;52.956;6.796;2023-03-04T00:40:52;6.20;99.90
55203;DHT22;41077;52.956;6.796;2023-03-04T00:43:18;6.20;99.90
55203;DHT22;41077;52.956;6.796;2023-03-04T00:45:44;6.20;99.90
55203;DHT22;41077;52.956;6.796;2023-03-04T00:48:09;6.20;99.90
55203;DHT22;41077;52.956;6.796;2023-03-04T00:50:36;6.20;99.90
55203;DHT22;41077;52.956;6.796;2023-03-04T00:53:02;6.20;99.90
55203;DHT22;41077;52.956;6.796;2023-03-04T00:55:28;6.10;99.90
55203;DHT22;41077;52.956;6.796;2023-03-04T00:57:53;6.20;99.90
55203;DHT22;41077;52.956;6.796;2023-03-04T01:00:19;6.20;99.90
55203;DHT22;41077;52.956;6.796;2023-03-04T01:02:45;6.20;99.90
55203;DHT22;41077;52.956;6.796;2023-03-04T01:05:11;6.20;99.90
55203;DHT22;41077;52.956;6.796;2023-03-04T01:07:37;6.20;99.90
55203;DHT22;41077;52.956;6.796;2023-03-04T01:10:03;6.20;99.90
55203;DHT22;41077;52.956;6.796;2023-03-04T01:12:29;6.20;99.90
55203;DHT22;41077;52.956;6.796;2023-03-04T01:14:54;6.20;99.90
55203;DHT22;41077;52.956;6.796;2023-03-04T01:17:20;6.20;99.90
55203;DHT22;41077;52.956;6.796;2023-03-04T01:19:46;6.20;99.90
55203;DHT22;41077;52.956;6.796;2023-03-04T01:22:12;6.20;99.90
55203;DHT22;41077;52.956;6.796;2023-03-04T01:24:39;6.20;99.90
55203;DHT22;41077;52.956;6.796;2023-03-04T01:27:05;6.20;99.90
55203;DHT22;41077;52.956;6.796;2023-03-04T01:29:31;6.20;99.90
55203;DHT22;41077;52.956;6.796;2023-03-04T01:31:56;6.20;99.90
55203;DHT22;41077;52.956;6.796;2023-03-04T01:34:22;6.20;99.90
55203;DHT22;41077;52.956;6.796;2023-03-04T01:36:48;6.20;99.90
55203;DHT22;41077;52.956;6.796;2023-03-04T01:39:13;6.20;99.90
55203;DHT22;41077;52.956;6.796;2023-03-04T01:41:39;6.20;99.90
55203;DHT22;41077;52.956;6.796;2023-03-04T01:44:05;6.20;99.90
55203;DHT22;41077;52.956;6.796;2023-03-04T01:46:31;6.20;99.90
55203;DHT22;41077;52.956;6.796;2023-03-04T01:48:57;6.20;99.90
55203;DHT22;41077;52.956;6.796;2023-03-04T01:51:23;6.20;99.90
55203;DHT22;41077;52.956;6.796;2023-03-04T01:53:50;6.20;99.90
55203;DHT22;41077;52.956;6.796;2023-03-04T01:56:50;6.20;99.90
55203;DHT22;41077;52.956;6.796;2023-03-04T01:59:24;6.20;99.90
55203;DHT22;41077;52.956;6.796;2023-03-04T02:01:58;6.20;99.90
55203;DHT22;41077;52.956;6.796;2023-03-04T02:04:29;6.20;99.90
55203;DHT22;41077;52.956;6.796;2023-03-04T02:06:56;6.20;99.90
55203;DHT22;41077;52.956;6.796;2023-03-04T02:09:22;6.20;99.90
55203;DHT22;41077;52.956;6.796;2023-03-04T02:11:49;6.20;99.90
55203;DHT22;41077;52.956;6.796;2023-03-04T02:14:15;6.20;99.90
55203;DHT22;41077;52.956;6.796;2023-03-04T02:16:42;6.10;99.90
55203;DHT22;41077;52.956;6.796;2023-03-04T02:21:56;6.20;99.90
55203;DHT22;41077;52.956;6.796;2023-03-04T02:24:30;6.20;99.90
55203;DHT22;41077;52.956;6.796;2023-03-04T02:26:58;6.10;99.90
55203;DHT22;41077;52.956;6.796;2023-03-04T02:29:23;6.10;99.90
55203;DHT22;41077;52.956;6.796;2023-03-04T02:31:51;6.10;99.90
55203;DHT22;41077;52.956;6.796;2023-03-04T02:34:21;6.10;99.90
55203;DHT22;41077;52.956;6.796;2023-03-04T02:36:49;6.10;99.90
55203;DHT22;41077;52.956;6.796;2023-03-04T02:39:34;6.00;99.90
55203;DHT22;41077;52.956;6.796;2023-03-04T02:42:01;6.00;99.90
55203;DHT22;41077;52.956;6.796;2023-03-04T02:44:29;6.00;99.90
55203;DHT22;41077;52.956;6.796;2023-03-04T02:46:55;5.90;99.90
55203;DHT22;41077;52.956;6.796;2023-03-04T02:49:23;5.90;99.90
55203;DHT22;41077;52.956;6.796;2023-03-04T02:52:02;5.90;99.90
55203;DHT22;41077;52.956;6.796;2023-03-04T02:54:29;5.80;99.90
55203;DHT22;41077;52.956;6.796;2023-03-04T02:56:57;5.80;99.90
55203;DHT22;41077;52.956;6.796;2023-03-04T02:59:23;5.80;99.90
55203;DHT22;41077;52.956;6.796;2023-03-04T03:01:49;5.80;99.90
55203;DHT22;41077;52.956;6.796;2023-03-04T03:04:15;5.80;99.90
55203;DHT22;41077;52.956;6.796;2023-03-04T03:06:41;5.80;99.90
55203;DHT22;41077;52.956;6.796;2023-03-04T03:09:07;5.80;99.90
55203;DHT22;41077;52.956;6.796;2023-03-04T03:11:33;5.80;99.90
55203;DHT22;41077;52.956;6.796;2023-03-04T03:13:59;5.80;99.90
55203;DHT22;41077;52.956;6.796;2023-03-04T03:16:25;5.90;99.90
55203;DHT22;41077;52.956;6.796;2023-03-04T03:18:50;5.80;99.90
55203;DHT22;41077;52.956;6.796;2023-03-04T03:21:16;5.90;99.90
55203;DHT22;41077;52.956;6.796;2023-03-04T03:23:42;5.80;99.90
55203;DHT22;41077;52.956;6.796;2023-03-04T03:26:08;5.80;99.90
55203;DHT22;41077;52.956;6.796;2023-03-04T03:28:34;5.80;99.90
55203;DHT22;41077;52.956;6.796;2023-03-04T03:31:00;5.80;99.90
55203;DHT22;41077;52.956;6.796;2023-03-04T03:33:26;5.90;99.90
55203;DHT22;41077;52.956;6.796;2023-03-04T03:35:52;5.90;99.90
55203;DHT22;41077;52.956;6.796;2023-03-04T03:38:18;5.90;99.90
55203;DHT22;41077;52.956;6.796;2023-03-04T03:40:43;5.80;99.90
55203;DHT22;41077;52.956;6.796;2023-03-04T03:43:10;5.90;99.90
55203;DHT22;41077;52.956;6.796;2023-03-04T03:45:36;5.80;99.90
55203;DHT22;41077;52.956;6.796;2023-03-04T03:48:01;5.80;99.90
55203;DHT22;41077;52.956;6.796;2023-03-04T03:50:27;5.80;99.90
55203;DHT22;41077;52.956;6.796;2023-03-04T03:52:54;5.90;99.90
55203;DHT22;41077;52.956;6.796;2023-03-04T03:55:20;5.90;99.90
55203;DHT22;41077;52.956;6.796;2023-03-04T03:57:46;5.90;99.90
55203;DHT22;41077;52.956;6.796;2023-03-04T04:00:12;5.80;99.90
55203;DHT22;41077;52.956;6.796;2023-03-04T04:02:39;5.80;99.90
55203;DHT22;41077;52.956;6.796;2023-03-04T04:05:06;5.80;99.90
55203;DHT22;41077;52.956;6.796;2023-03-04T04:07:32;5.80;99.90
55203;DHT22;41077;52.956;6.796;2023-03-04T04:09:57;5.80;99.90
55203;DHT22;41077;52.956;6.796;2023-03-04T04:12:23;5.80;99.90
55203;DHT22;41077;52.956;6.796;2023-03-04T04:14:49;5.80;99.90
55203;DHT22;41077;52.956;6.796;2023-03-04T04:17:15;5.80;99.90
55203;DHT22;41077;52.956;6.796;2023-03-04T04:19:40;5.90;99.90
55203;DHT22;41077;52.956;6.796;2023-03-04T04:22:08;5.90;99.90
55203;DHT22;41077;52.956;6.796;2023-03-04T04:24:37;5.80;99.90
55203;DHT22;41077;52.956;6.796;2023-03-04T04:27:03;5.80;99.90
55203;DHT22;41077;52.956;6.796;2023-03-04T04:29:29;5.80;99.90
55203;DHT22;41077;52.956;6.796;2023-03-04T04:31:55;5.80;99.90
55203;DHT22;41077;52.956;6.796;2023-03-04T04:34:20;5.90;99.90
55203;DHT22;41077;52.956;6.796;2023-03-04T04:36:47;5.80;99.90
55203;DHT22;41077;52.956;6.796;2023-03-04T04:39:13;5.90;99.90
55203;DHT22;41077;52.956;6.796;2023-03-04T04:41:41;5.80;99.90
55203;DHT22;41077;52.956;6.796;2023-03-04T04:44:08;5.90;99.90
55203;DHT22;41077;52.956;6.796;2023-03-04T04:46:34;5.90;99.90
55203;DHT22;41077;52.956;6.796;2023-03-04T04:49:00;5.90;99.90
55203;DHT22;41077;52.956;6.796;2023-03-04T04:51:26;5.90;99.90
55203;DHT22;41077;52.956;6.796;2023-03-04T04:53:52;5.90;99.90
55203;DHT22;41077;52.956;6.796;2023-03-04T04:56:21;5.90;99.90
55203;DHT22;41077;52.956;6.796;2023-03-04T04:58:47;5.90;99.90
55203;DHT22;41077;52.956;6.796;2023-03-04T05:01:14;5.90;99.90
55203;DHT22;41077;52.956;6.796;2023-03-04T05:03:40;5.80;99.90
55203;DHT22;41077;52.956;6.796;2023-03-04T05:06:07;5.80;99.90
55203;DHT22;41077;52.956;6.796;2023-03-04T05:08:33;5.80;99.90
55203;DHT22;41077;52.956;6.796;2023-03-04T05:10:59;5.80;99.90
55203;DHT22;41077;52.956;6.796;2023-03-04T05:13:25;5.70;99.90
55203;DHT22;41077;52.956;6.796;2023-03-04T05:15:52;5.80;99.90
55203;DHT22;41077;52.956;6.796;2023-03-04T05:18:19;5.70;99.90
55203;DHT22;41077;52.956;6.796;2023-03-04T05:20:56;5.70;99.90
55203;DHT22;41077;52.956;6.796;2023-03-04T05:23:23;5.70;99.90
55203;DHT22;41077;52.956;6.796;2023-03-04T05:25:49;5.70;99.90
55203;DHT22;41077;52.956;6.796;2023-03-04T05:28:16;5.70;99.90
55203;DHT22;41077;52.956;6.796;2023-03-04T05:30:42;5.70;99.90
55203;DHT22;41077;52.956;6.796;2023-03-04T05:33:09;5.70;99.90
55203;DHT22;41077;52.956;6.796;2023-03-04T05:35:36;5.70;99.90
55203;DHT22;41077;52.956;6.796;2023-03-04T05:38:03;5.70;99.90
55203;DHT22;41077;52.956;6.796;2023-03-04T05:40:30;5.70;99.90
55203;DHT22;41077;52.956;6.796;2023-03-04T05:42:56;5.60;99.90
55203;DHT22;41077;52.956;6.796;2023-03-04T05:45:22;5.60;99.90
55203;DHT22;41077;52.956;6.796;2023-03-04T05:47:48;5.60;99.90
55203;DHT22;41077;52.956;6.796;2023-03-04T05:50:14;5.60;99.90
55203;DHT22;41077;52.956;6.796;2023-03-04T05:52:39;5.60;99.90
55203;DHT22;41077;52.956;6.796;2023-03-04T05:55:06;5.60;99.90
55203;DHT22;41077;52.956;6.796;2023-03-04T05:57:31;5.50;99.90
55203;DHT22;41077;52.956;6.796;2023-03-04T05:59:57;5.50;99.90
55203;DHT22;41077;52.956;6.796;2023-03-04T06:02:23;5.50;99.90
55203;DHT22;41077;52.956;6.796;2023-03-04T06:04:48;5.40;99.90
55203;DHT22;41077;52.956;6.796;2023-03-04T06:07:14;5.50;99.90
55203;DHT22;41077;52.956;6.796;2023-03-04T06:09:40;5.50;99.90
55203;DHT22;41077;52.956;6.796;2023-03-04T06:12:05;5.40;99.90
55203;DHT22;41077;52.956;6.796;2023-03-04T06:14:31;5.40;99.90
55203;DHT22;41077;52.956;6.796;2023-03-04T06:16:57;5.40;99.90
55203;DHT22;41077;52.956;6.796;2023-03-04T06:19:23;5.40;99.90
55203;DHT22;41077;52.956;6.796;2023-03-04T06:21:48;5.50;99.90
55203;DHT22;41077;52.956;6.796;2023-03-04T06:24:14;5.40;99.90
55203;DHT22;41077;52.956;6.796;2023-03-04T06:26:40;5.40;99.90
55203;DHT22;41077;52.956;6.796;2023-03-04T06:29:06;5.50;99.90
55203;DHT22;41077;52.956;6.796;2023-03-04T06:31:31;5.50;99.90
55203;DHT22;41077;52.956;6.796;2023-03-04T06:33:57;5.50;99.90
55203;DHT22;41077;52.956;6.796;2023-03-04T06:36:23;5.50;99.90
55203;DHT22;41077;52.956;6.796;2023-03-04T06:38:48;5.50;99.90
55203;DHT22;41077;52.956;6.796;2023-03-04T06:41:15;5.50;99.90
55203;DHT22;41077;52.956;6.796;2023-03-04T06:43:41;5.50;99.90
55203;DHT22;41077;52.956;6.796;2023-03-04T06:46:07;5.50;99.90
55203;DHT22;41077;52.956;6.796;2023-03-04T06:48:33;5.50;99.90
55203;DHT22;41077;52.956;6.796;2023-03-04T06:51:05;5.60;99.90
55203;DHT22;41077;52.956;6.796;2023-03-04T06:53:31;5.60;99.90
55203;DHT22;41077;52.956;6.796;2023-03-04T06:55:57;5.60;99.90
55203;DHT22;41077;52.956;6.796;2023-03-04T06:58:22;5.60;99.90
55203;DHT22;41077;52.956;6.796;2023-03-04T07:00:48;5.70;99.90
55203;DHT22;41077;52.956;6.796;2023-03-04T07:03:14;5.70;99.90
55203;DHT22;41077;52.956;6.796;2023-03-04T07:05:39;5.60;99.90
55203;DHT22;41077;52.956;6.796;2023-03-04T07:08:06;5.70;99.90
55203;DHT22;41077;52.956;6.796;2023-03-04T07:10:32;5.70;99.90
55203;DHT22;41077;52.956;6.796;2023-03-04T07:12:58;5.70;99.90
55203;DHT22;41077;52.956;6.796;2023-03-04T07:15:23;5.70;99.90
55203;DHT22;41077;52.956;6.796;2023-03-04T07:17:49;5.70;99.90
55203;DHT22;41077;52.956;6.796;2023-03-04T07:20:15;5.80;99.90
55203;DHT22;41077;52.956;6.796;2023-03-04T07:22:40;5.80;99.90
55203;DHT22;41077;52.956;6.796;2023-03-04T07:25:06;5.80;99.90
55203;DHT22;41077;52.956;6.796;2023-03-04T07:27:32;5.80;99.90
55203;DHT22;41077;52.956;6.796;2023-03-04T07:29:58;5.80;99.90
55203;DHT22;41077;52.956;6.796;2023-03-04T07:32:24;5.70;99.90
55203;DHT22;41077;52.956;6.796;2023-03-04T07:34:50;5.80;99.90
55203;DHT22;41077;52.956;6.796;2023-03-04T07:37:16;5.80;99.90
55203;DHT22;41077;52.956;6.796;2023-03-04T07:39:42;5.90;99.90
55203;DHT22;41077;52.956;6.796;2023-03-04T07:42:08;5.90;99.90
55203;DHT22;41077;52.956;6.796;2023-03-04T07:44:33;5.90;99.90
55203;DHT22;41077;52.956;6.796;2023-03-04T07:46:59;6.00;99.90
55203;DHT22;41077;52.956;6.796;2023-03-04T07:49:25;6.00;99.90
55203;DHT22;41077;52.956;6.796;2023-03-04T07:51:50;6.00;99.90
55203;DHT22;41077;52.956;6.796;2023-03-04T07:54:16;6.00;99.90
55203;DHT22;41077;52.956;6.796;2023-03-04T07:56:44;6.00;99.90
55203;DHT22;41077;52.956;6.796;2023-03-04T07:59:10;6.00;99.90
55203;DHT22;41077;52.956;6.796;2023-03-04T08:01:37;6.00;99.90
55203;DHT22;41077;52.956;6.796;2023-03-04T08:04:04;6.00;99.90
55203;DHT22;41077;52.956;6.796;2023-03-04T08:06:31;6.00;99.90
55203;DHT22;41077;52.956;6.796;2023-03-04T08:08:59;6.00;99.90
55203;DHT22;41077;52.956;6.796;2023-03-04T08:11:26;6.00;99.90
55203;DHT22;41077;52.956;6.796;2023-03-04T08:13:52;6.00;99.90
55203;DHT22;41077;52.956;6.796;2023-03-04T08:16:20;6.00;99.90
55203;DHT22;41077;52.956;6.796;2023-03-04T08:18:48;6.10;99.90
55203;DHT22;41077;52.956;6.796;2023-03-04T08:21:15;6.00;99.90
55203;DHT22;41077;52.956;6.796;2023-03-04T08:23:42;6.10;99.90
55203;DHT22;41077;52.956;6.796;2023-03-04T08:26:31;6.10;99.90
55203;DHT22;41077;52.956;6.796;2023-03-04T08:28:56;6.20;99.90
55203;DHT22;41077;52.956;6.796;2023-03-04T08:31:22;6.20;99.90
55203;DHT22;41077;52.956;6.796;2023-03-04T08:33:48;6.20;99.90
55203;DHT22;41077;52.956;6.796;2023-03-04T08:36:14;6.30;99.90
55203;DHT22;41077;52.956;6.796;2023-03-04T08:38:40;6.20;99.90
55203;DHT22;41077;52.956;6.796;2023-03-04T08:41:06;6.20;99.90
55203;DHT22;41077;52.956;6.796;2023-03-04T08:43:32;6.20;99.90
55203;DHT22;41077;52.956;6.796;2023-03-04T08:45:59;6.20;99.90
55203;DHT22;41077;52.956;6.796;2023-03-04T08:48:25;6.20;99.90
55203;DHT22;41077;52.956;6.796;2023-03-04T08:50:51;6.20;99.90
55203;DHT22;41077;52.956;6.796;2023-03-04T08:53:18;6.10;99.90
55203;DHT22;41077;52.956;6.796;2023-03-04T08:55:44;6.10;99.90
55203;DHT22;41077;52.956;6.796;2023-03-04T08:58:11;6.10;99.90
55203;DHT22;41077;52.956;6.796;2023-03-04T09:00:39;6.10;99.90
55203;DHT22;41077;52.956;6.796;2023-03-04T09:03:07;6.10;99.90
55203;DHT22;41077;52.956;6.796;2023-03-04T09:05:32;6.20;99.90
55203;DHT22;41077;52.956;6.796;2023-03-04T09:07:58;6.30;99.90
55203;DHT22;41077;52.956;6.796;2023-03-04T09:10:24;6.30;99.90
55203;DHT22;41077;52.956;6.796;2023-03-04T09:12:50;6.30;99.90
55203;DHT22;41077;52.956;6.796;2023-03-04T09:15:16;6.30;99.90
55203;DHT22;41077;52.956;6.796;2023-03-04T09:17:42;6.40;99.90
55203;DHT22;41077;52.956;6.796;2023-03-04T09:20:10;6.30;99.90
55203;DHT22;41077;52.956;6.796;2023-03-04T09:22:40;6.40;99.90
55203;DHT22;41077;52.956;6.796;2023-03-04T09:25:06;6.40;99.90
55203;DHT22;41077;52.956;6.796;2023-03-04T09:27:32;6.40;99.90
55203;DHT22;41077;52.956;6.796;2023-03-04T09:29:58;6.40;99.90
55203;DHT22;41077;52.956;6.796;2023-03-04T09:32:25;6.50;99.90
55203;DHT22;41077;52.956;6.796;2023-03-04T09:34:50;6.50;99.90
55203;DHT22;41077;52.956;6.796;2023-03-04T09:37:16;6.50;99.90
55203;DHT22;41077;52.956;6.796;2023-03-04T09:39:42;6.60;99.90
55203;DHT22;41077;52.956;6.796;2023-03-04T09:42:10;6.50;99.90
55203;DHT22;41077;52.956;6.796;2023-03-04T09:44:42;6.60;99.90
55203;DHT22;41077;52.956;6.796;2023-03-04T09:47:12;6.60;99.90
55203;DHT22;41077;52.956;6.796;2023-03-04T09:49:41;6.60;99.90
55203;DHT22;41077;52.956;6.796;2023-03-04T09:57:44;6.70;99.90
55203;DHT22;41077;52.956;6.796;2023-03-04T10:00:21;6.70;99.90
55203;DHT22;41077;52.956;6.796;2023-03-04T10:08:30;6.80;99.90
55203;DHT22;41077;52.956;6.796;2023-03-04T10:10:58;6.80;99.90
55203;DHT22;41077;52.956;6.796;2023-03-04T10:13:34;6.70;99.90
55203;DHT22;41077;52.956;6.796;2023-03-04T10:16:04;6.70;99.90
55203;DHT22;41077;52.956;6.796;2023-03-04T10:18:52;6.60;99.90
55203;DHT22;41077;52.956;6.796;2023-03-04T10:21:22;6.50;99.90
55203;DHT22;41077;52.956;6.796;2023-03-04T10:23:48;6.60;99.90
55203;DHT22;41077;52.956;6.796;2023-03-04T10:26:17;6.70;99.90
55203;DHT22;41077;52.956;6.796;2023-03-04T10:28:45;6.80;99.90
55203;DHT22;41077;52.956;6.796;2023-03-04T10:31:20;6.80;99.90
55203;DHT22;41077;52.956;6.796;2023-03-04T10:33:48;6.90;99.90
55203;DHT22;41077;52.956;6.796;2023-03-04T10:39:01;7.10;99.90
55203;DHT22;41077;52.956;6.796;2023-03-04T10:41:29;7.10;99.90
55203;DHT22;41077;52.956;6.796;2023-03-04T10:44:02;7.20;99.90
55203;DHT22;41077;52.956;6.796;2023-03-04T10:46:28;7.10;99.90
55203;DHT22;41077;52.956;6.796;2023-03-04T10:48:54;7.10;99.90
55203;DHT22;41077;52.956;6.796;2023-03-04T10:51:26;7.00;99.90
55203;DHT22;41077;52.956;6.796;2023-03-04T10:53:57;6.90;99.90
55203;DHT22;41077;52.956;6.796;2023-03-04T10:56:38;6.80;99.90
55203;DHT22;41077;52.956;6.796;2023-03-04T10:59:30;6.80;99.90
55203;DHT22;41077;52.956;6.796;2023-03-04T11:01:57;6.80;99.90
55203;DHT22;41077;52.956;6.796;2023-03-04T11:04:24;6.90;99.90
55203;DHT22;41077;52.956;6.796;2023-03-04T11:06:51;7.00;99.90
55203;DHT22;41077;52.956;6.796;2023-03-04T11:09:28;7.00;99.90
55203;DHT22;41077;52.956;6.796;2023-03-04T11:11:55;7.10;99.90
55203;DHT22;41077;52.956;6.796;2023-03-04T11:14:35;7.20;99.90
55203;DHT22;41077;52.956;6.796;2023-03-04T11:20:17;7.20;99.90
55203;DHT22;41077;52.956;6.796;2023-03-04T11:22:47;7.20;99.90
55203;DHT22;41077;52.956;6.796;2023-03-04T11:25:27;7.30;99.90
55203;DHT22;41077;52.956;6.796;2023-03-04T11:28:18;7.20;99.90
55203;DHT22;41077;52.956;6.796;2023-03-04T11:31:00;7.20;99.90
55203;DHT22;41077;52.956;6.796;2023-03-04T11:33:35;7.20;99.90
55203;DHT22;41077;52.956;6.796;2023-03-04T11:38:59;7.30;99.90
55203;DHT22;41077;52.956;6.796;2023-03-04T11:41:51;7.30;99.90
55203;DHT22;41077;52.956;6.796;2023-03-04T11:44:18;7.30;99.90
55203;DHT22;41077;52.956;6.796;2023-03-04T11:46:56;7.40;99.90
55203;DHT22;41077;52.956;6.796;2023-03-04T11:55:25;7.40;99.90
55203;DHT22;41077;52.956;6.796;2023-03-04T12:06:11;7.40;99.90
55203;DHT22;41077;52.956;6.796;2023-03-04T12:14:15;7.90;99.90
55203;DHT22;41077;52.956;6.796;2023-03-04T12:30:49;7.90;99.90
55203;DHT22;41077;52.956;6.796;2023-03-04T12:33:39;7.70;99.90
55203;DHT22;41077;52.956;6.796;2023-03-04T12:41:38;7.90;99.90
55203;DHT22;41077;52.956;6.796;2023-03-04T12:44:09;8.00;99.90
55203;DHT22;41077;52.956;6.796;2023-03-04T12:55:41;7.70;99.90
55203;DHT22;41077;52.956;6.796;2023-03-04T12:58:15;7.80;99.90
55203;DHT22;41077;52.956;6.796;2023-03-04T13:00:47;7.80;99.90
55203;DHT22;41077;52.956;6.796;2023-03-04T13:09:02;7.70;99.90
55203;DHT22;41077;52.956;6.796;2023-03-04T13:11:38;7.70;99.90
55203;DHT22;41077;52.956;6.796;2023-03-04T13:17:17;7.50;99.90
55203;DHT22;41077;52.956;6.796;2023-03-04T13:22:41;7.50;99.90
55203;DHT22;41077;52.956;6.796;2023-03-04T13:25:27;7.60;99.90
55203;DHT22;41077;52.956;6.796;2023-03-04T13:35:57;8.20;99.90
55203;DHT22;41077;52.956;6.796;2023-03-04T13:38:33;8.30;99.90
55203;DHT22;41077;52.956;6.796;2023-03-04T13:43:50;7.90;99.90
55203;DHT22;41077;52.956;6.796;2023-03-04T14:04:29;7.40;99.90
55203;DHT22;41077;52.956;6.796;2023-03-04T14:06:56;8.00;99.90
55203;DHT22;41077;52.956;6.796;2023-03-04T14:09:31;8.50;99.90
55203;DHT22;41077;52.956;6.796;2023-03-04T14:11:59;8.70;99.90
55203;DHT22;41077;52.956;6.796;2023-03-04T14:14:29;8.70;99.90
55203;DHT22;41077;52.956;6.796;2023-03-04T14:17:00;8.60;99.90
55203;DHT22;41077;52.956;6.796;2023-03-04T14:19:31;8.50;99.90
55203;DHT22;41077;52.956;6.796;2023-03-04T14:22:01;8.40;99.90
55203;DHT22;41077;52.956;6.796;2023-03-04T14:24:26;8.60;99.90
55203;DHT22;41077;52.956;6.796;2023-03-04T14:27:12;8.80;99.90
55203;DHT22;41077;52.956;6.796;2023-03-04T14:29:37;9.10;99.90
55203;DHT22;41077;52.956;6.796;2023-03-04T14:32:04;9.40;99.90
55203;DHT22;41077;52.956;6.796;2023-03-04T14:34:33;9.20;99.90
55203;DHT22;41077;52.956;6.796;2023-03-04T14:37:00;8.90;99.90
55203;DHT22;41077;52.956;6.796;2023-03-04T14:39:29;8.50;99.90
55203;DHT22;41077;52.956;6.796;2023-03-04T14:42:00;8.30;99.90
55203;DHT22;41077;52.956;6.796;2023-03-04T14:44:39;8.10;99.90
55203;DHT22;41077;52.956;6.796;2023-03-04T14:47:12;8.00;99.90
55203;DHT22;41077;52.956;6.796;2023-03-04T14:49:39;7.90;99.90
55203;DHT22;41077;52.956;6.796;2023-03-04T14:52:05;7.80;99.90
55203;DHT22;41077;52.956;6.796;2023-03-04T14:54:40;7.70;99.90
55203;DHT22;41077;52.956;6.796;2023-03-04T14:57:19;7.50;99.90
55203;DHT22;41077;52.956;6.796;2023-03-04T14:59:46;7.20;99.90
55203;DHT22;41077;52.956;6.796;2023-03-04T15:02:27;6.90;99.90
55203;DHT22;41077;52.956;6.796;2023-03-04T15:05:06;6.70;99.90
55203;DHT22;41077;52.956;6.796;2023-03-04T15:07:36;6.40;99.90
55203;DHT22;41077;52.956;6.796;2023-03-04T15:10:08;6.30;99.90
55203;DHT22;41077;52.956;6.796;2023-03-04T15:12:37;6.30;99.90
55203;DHT22;41077;52.956;6.796;2023-03-04T15:15:47;6.20;99.90
55203;DHT22;41077;52.956;6.796;2023-03-04T15:18:02;6.30;99.90
55203;DHT22;41077;52.956;6.796;2023-03-04T15:20:30;6.30;99.90
55203;DHT22;41077;52.956;6.796;2023-03-04T15:23:02;6.50;99.90
55203;DHT22;41077;52.956;6.796;2023-03-04T15:25:28;7.00;99.90
55203;DHT22;41077;52.956;6.796;2023-03-04T15:27:55;7.10;99.90
55203;DHT22;41077;52.956;6.796;2023-03-04T15:30:30;6.90;99.90
55203;DHT22;41077;52.956;6.796;2023-03-04T15:32:57;6.80;99.90
55203;DHT22;41077;52.956;6.796;2023-03-04T15:35:26;6.70;99.90
55203;DHT22;41077;52.956;6.796;2023-03-04T15:37:52;6.40;99.90
55203;DHT22;41077;52.956;6.796;2023-03-04T15:40:32;6.40;99.90
55203;DHT22;41077;52.956;6.796;2023-03-04T15:43:00;6.40;99.90
55203;DHT22;41077;52.956;6.796;2023-03-04T15:45:35;6.30;99.90
55203;DHT22;41077;52.956;6.796;2023-03-04T15:48:06;6.30;99.90
55203;DHT22;41077;52.956;6.796;2023-03-04T15:50:34;6.30;99.90
55203;DHT22;41077;52.956;6.796;2023-03-04T15:53:02;6.30;99.90
55203;DHT22;41077;52.956;6.796;2023-03-04T15:55:29;6.30;99.90
55203;DHT22;41077;52.956;6.796;2023-03-04T15:57:57;6.30;99.90
55203;DHT22;41077;52.956;6.796;2023-03-04T16:00:23;6.30;99.90
55203;DHT22;41077;52.956;6.796;2023-03-04T16:02:49;6.30;99.90
55203;DHT22;41077;52.956;6.796;2023-03-04T16:05:15;6.30;99.90
55203;DHT22;41077;52.956;6.796;2023-03-04T16:07:44;6.30;99.90
55203;DHT22;41077;52.956;6.796;2023-03-04T16:10:26;6.30;99.90
55203;DHT22;41077;52.956;6.796;2023-03-04T16:12:53;6.20;99.90
55203;DHT22;41077;52.956;6.796;2023-03-04T16:15:20;6.10;99.90
55203;DHT22;41077;52.956;6.796;2023-03-04T16:17:47;6.10;99.90
55203;DHT22;41077;52.956;6.796;2023-03-04T16:20:21;6.00;99.90
55203;DHT22;41077;52.956;6.796;2023-03-04T16:22:49;6.00;99.90
55203;DHT22;41077;52.956;6.796;2023-03-04T16:25:16;6.00;99.90
55203;DHT22;41077;52.956;6.796;2023-03-04T16:27:43;6.00;99.90
55203;DHT22;41077;52.956;6.796;2023-03-04T16:30:20;6.00;99.90
55203;DHT22;41077;52.956;6.796;2023-03-04T16:32:47;6.00;99.90
55203;DHT22;41077;52.956;6.796;2023-03-04T16:35:14;5.90;99.90
55203;DHT22;41077;52.956;6.796;2023-03-04T16:37:40;5.90;99.90
55203;DHT22;41077;52.956;6.796;2023-03-04T16:40:10;5.80;99.90
55203;DHT22;41077;52.956;6.796;2023-03-04T16:42:37;5.70;99.90
55203;DHT22;41077;52.956;6.796;2023-03-04T16:45:03;5.70;99.90
55203;DHT22;41077;52.956;6.796;2023-03-04T16:47:28;5.60;99.90
55203;DHT22;41077;52.956;6.796;2023-03-04T16:49:54;5.50;99.90
55203;DHT22;41077;52.956;6.796;2023-03-04T16:52:26;5.50;99.90
55203;DHT22;41077;52.956;6.796;2023-03-04T16:54:54;5.50;99.90
55203;DHT22;41077;52.956;6.796;2023-03-04T16:57:20;5.50;99.90
55203;DHT22;41077;52.956;6.796;2023-03-04T16:59:46;5.50;99.90
55203;DHT22;41077;52.956;6.796;2023-03-04T17:02:17;5.50;99.90
55203;DHT22;41077;52.956;6.796;2023-03-04T17:04:43;5.50;99.90
55203;DHT22;41077;52.956;6.796;2023-03-04T17:07:09;5.50;99.90
55203;DHT22;41077;52.956;6.796;2023-03-04T17:09:35;5.50;99.90
55203;DHT22;41077;52.956;6.796;2023-03-04T17:12:04;5.50;99.90
55203;DHT22;41077;52.956;6.796;2023-03-04T17:14:30;5.50;99.90
55203;DHT22;41077;52.956;6.796;2023-03-04T17:16:56;5.50;99.90
55203;DHT22;41077;52.956;6.796;2023-03-04T17:19:21;5.50;99.90
55203;DHT22;41077;52.956;6.796;2023-03-04T17:21:47;5.50;99.90
55203;DHT22;41077;52.956;6.796;2023-03-04T17:24:13;5.50;99.90
55203;DHT22;41077;52.956;6.796;2023-03-04T17:26:38;5.40;99.90
55203;DHT22;41077;52.956;6.796;2023-03-04T17:29:06;5.40;99.90
55203;DHT22;41077;52.956;6.796;2023-03-04T17:31:31;5.40;99.90
55203;DHT22;41077;52.956;6.796;2023-03-04T17:33:57;5.40;99.90
55203;DHT22;41077;52.956;6.796;2023-03-04T17:36:23;5.40;99.90
55203;DHT22;41077;52.956;6.796;2023-03-04T17:38:49;5.40;99.90
55203;DHT22;41077;52.956;6.796;2023-03-04T17:41:16;5.40;99.90
55203;DHT22;41077;52.956;6.796;2023-03-04T17:43:44;5.40;99.90